sensor_id;sensor_type;location;lat;lon;timestamp;P1;durP1;ratioP1;P2;durP2;ratioP2
21107;SDS011;10712;52.944;9.098;2023-02-15T00:01:58;37.08;;;22.55;;
21107;SDS011;10712;52.944;9.098;2023-02-15T00:04:24;32.13;;;21.27;;
21107;SDS011;10712;52.944;9.098;2023-02-15T00:07:09;34.78;;;21.95;;
21107;SDS011;10712;52.944;9.098;2023-02-15T00:09:35;35.55;;;21.20;;
21107;SDS011;10712;52.944;9.098;2023-02-15T00:12:01;41.80;;;23.35;;
21107;SDS011;10712;52.944;9.098;2023-02-15T00:14:26;29.92;;;20.80;;
21107;SDS011;10712;52.944;9.098;2023-02-15T00:16:52;31.75;;;21.30;;
21107;SDS011;10712;52.944;9.098;2023-02-15T00:19:20;29.45;;;21.02;;
21107;SDS011;10712;52.944;9.098;2023-02-15T00:21:46;30.40;;;20.90;;
21107;SDS011;10712;52.944;9.098;2023-02-15T00:24:14;31.15;;;20.67;;
21107;SDS011;10712;52.944;9.098;2023-02-15T00:26:43;27.58;;;19.10;;
21107;SDS011;10712;52.944;9.098;2023-02-15T00:29:10;34.15;;;21.70;;
21107;SDS011;10712;52.944;9.098;2023-02-15T00:31:38;24.55;;;17.63;;
21107;SDS011;10712;52.944;9.098;2023-02-15T00:34:04;32.08;;;20.25;;
21107;SDS011;10712;52.944;9.098;2023-02-15T00:36:35;30.40;;;21.90;;
21107;SDS011;10712;52.944;9.098;2023-02-15T00:39:01;31.80;;;21.63;;
21107;SDS011;10712;52.944;9.098;2023-02-15T00:41:29;31.83;;;21.48;;
21107;SDS011;10712;52.944;9.098;2023-02-15T00:43:56;30.75;;;20.73;;
21107;SDS011;10712;52.944;9.098;2023-02-15T00:46:22;28.98;;;20.45;;
21107;SDS011;10712;52.944;9.098;2023-02-15T00:48:48;28.08;;;19.63;;
21107;SDS011;10712;52.944;9.098;2023-02-15T00:51:14;23.15;;;17.67;;
21107;SDS011;10712;52.944;9.098;2023-02-15T00:53:40;26.20;;;18.38;;
21107;SDS011;10712;52.944;9.098;2023-02-15T00:56:06;28.02;;;20.13;;
21107;SDS011;10712;52.944;9.098;2023-02-15T00:58:32;27.60;;;19.58;;
21107;SDS011;10712;52.944;9.098;2023-02-15T01:01:04;26.88;;;19.05;;
21107;SDS011;10712;52.944;9.098;2023-02-15T01:03:34;24.85;;;18.23;;
21107;SDS011;10712;52.944;9.098;2023-02-15T01:06:01;23.30;;;16.88;;
21107;SDS011;10712;52.944;9.098;2023-02-15T01:08:28;22.42;;;16.58;;
21107;SDS011;10712;52.944;9.098;2023-02-15T01:10:55;21.85;;;16.73;;
21107;SDS011;10712;52.944;9.098;2023-02-15T01:13:21;25.67;;;17.73;;
21107;SDS011;10712;52.944;9.098;2023-02-15T01:15:54;25.08;;;17.65;;
21107;SDS011;10712;52.944;9.098;2023-02-15T01:18:20;26.42;;;19.30;;
21107;SDS011;10712;52.944;9.098;2023-02-15T01:20:47;23.58;;;17.17;;
21107;SDS011;10712;52.944;9.098;2023-02-15T01:23:14;25.25;;;17.05;;
21107;SDS011;10712;52.944;9.098;2023-02-15T01:25:40;24.17;;;17.70;;
21107;SDS011;10712;52.944;9.098;2023-02-15T01:28:06;26.60;;;17.42;;
21107;SDS011;10712;52.944;9.098;2023-02-15T01:30:33;23.23;;;17.67;;
21107;SDS011;10712;52.944;9.098;2023-02-15T01:32:59;23.17;;;16.80;;
21107;SDS011;10712;52.944;9.098;2023-02-15T01:35:30;24.40;;;16.90;;
21107;SDS011;10712;52.944;9.098;2023-02-15T01:37:56;22.77;;;17.00;;
21107;SDS011;10712;52.944;9.098;2023-02-15T01:40:23;23.95;;;18.27;;
21107;SDS011;10712;52.944;9.098;2023-02-15T01:42:50;24.63;;;17.35;;
21107;SDS011;10712;52.944;9.098;2023-02-15T01:47:54;22.67;;;16.98;;
21107;SDS011;10712;52.944;9.098;2023-02-15T01:50:37;22.45;;;16.55;;
21107;SDS011;10712;52.944;9.098;2023-02-15T01:55:42;23.13;;;17.38;;
21107;SDS011;10712;52.944;9.098;2023-02-15T01:58:15;24.15;;;18.13;;
21107;SDS011;10712;52.944;9.098;2023-02-15T02:00:42;21.58;;;16.35;;
21107;SDS011;10712;52.944;9.098;2023-02-15T02:03:09;20.98;;;15.88;;
21107;SDS011;10712;52.944;9.098;2023-02-15T02:05:35;22.77;;;17.25;;
21107;SDS011;10712;52.944;9.098;2023-02-15T02:08:03;20.85;;;15.98;;
21107;SDS011;10712;52.944;9.098;2023-02-15T02:10:30;22.98;;;16.15;;
21107;SDS011;10712;52.944;9.098;2023-02-15T02:12:57;23.98;;;17.52;;
21107;SDS011;10712;52.944;9.098;2023-02-15T02:15:45;26.60;;;18.63;;
21107;SDS011;10712;52.944;9.098;2023-02-15T02:18:31;21.25;;;15.13;;
21107;SDS011;10712;52.944;9.098;2023-02-15T02:29:30;22.85;;;16.42;;
21107;SDS011;10712;52.944;9.098;2023-02-15T02:44:47;22.42;;;16.63;;
21107;SDS011;10712;52.944;9.098;2023-02-15T02:47:23;22.50;;;15.57;;
21107;SDS011;10712;52.944;9.098;2023-02-15T02:49:59;18.98;;;14.15;;
21107;SDS011;10712;52.944;9.098;2023-02-15T02:57:52;20.67;;;15.52;;
21107;SDS011;10712;52.944;9.098;2023-02-15T03:00:56;19.98;;;15.35;;
21107;SDS011;10712;52.944;9.098;2023-02-15T03:03:41;18.02;;;13.82;;
21107;SDS011;10712;52.944;9.098;2023-02-15T03:06:25;19.40;;;14.63;;
21107;SDS011;10712;52.944;9.098;2023-02-15T03:11:48;17.52;;;13.35;;
21107;SDS011;10712;52.944;9.098;2023-02-15T03:14:16;18.70;;;14.50;;
21107;SDS011;10712;52.944;9.098;2023-02-15T03:16:46;23.17;;;15.45;;
21107;SDS011;10712;52.944;9.098;2023-02-15T03:19:27;14.60;;;12.13;;
21107;SDS011;10712;52.944;9.098;2023-02-15T03:22:44;18.75;;;13.88;;
21107;SDS011;10712;52.944;9.098;2023-02-15T03:27:49;19.70;;;15.55;;
21107;SDS011;10712;52.944;9.098;2023-02-15T03:30:38;20.80;;;14.43;;
21107;SDS011;10712;52.944;9.098;2023-02-15T03:33:09;19.13;;;14.07;;
21107;SDS011;10712;52.944;9.098;2023-02-15T03:38:37;17.88;;;13.07;;
21107;SDS011;10712;52.944;9.098;2023-02-15T03:41:13;19.15;;;14.55;;
21107;SDS011;10712;52.944;9.098;2023-02-15T03:43:48;18.83;;;14.27;;
21107;SDS011;10712;52.944;9.098;2023-02-15T03:49:09;16.75;;;13.50;;
21107;SDS011;10712;52.944;9.098;2023-02-15T03:51:43;16.55;;;12.48;;
21107;SDS011;10712;52.944;9.098;2023-02-15T03:54:17;25.45;;;13.88;;
21107;SDS011;10712;52.944;9.098;2023-02-15T03:57:12;18.65;;;14.15;;
21107;SDS011;10712;52.944;9.098;2023-02-15T04:00:21;26.40;;;13.95;;
21107;SDS011;10712;52.944;9.098;2023-02-15T04:05:40;19.13;;;13.57;;
21107;SDS011;10712;52.944;9.098;2023-02-15T04:08:09;22.75;;;16.10;;
21107;SDS011;10712;52.944;9.098;2023-02-15T04:10:36;18.05;;;13.50;;
21107;SDS011;10712;52.944;9.098;2023-02-15T04:13:21;18.98;;;13.90;;
21107;SDS011;10712;52.944;9.098;2023-02-15T04:15:50;19.38;;;14.02;;
21107;SDS011;10712;52.944;9.098;2023-02-15T04:18:46;18.75;;;14.30;;
21107;SDS011;10712;52.944;9.098;2023-02-15T04:21:30;18.50;;;14.20;;
21107;SDS011;10712;52.944;9.098;2023-02-15T04:24:15;17.77;;;14.02;;
21107;SDS011;10712;52.944;9.098;2023-02-15T04:27:00;25.10;;;13.25;;
21107;SDS011;10712;52.944;9.098;2023-02-15T04:29:28;16.65;;;12.90;;
21107;SDS011;10712;52.944;9.098;2023-02-15T04:31:55;18.30;;;13.27;;
21107;SDS011;10712;52.944;9.098;2023-02-15T04:34:23;14.25;;;11.27;;
21107;SDS011;10712;52.944;9.098;2023-02-15T04:36:50;14.55;;;12.25;;
21107;SDS011;10712;52.944;9.098;2023-02-15T04:39:16;16.20;;;12.75;;
21107;SDS011;10712;52.944;9.098;2023-02-15T04:41:43;15.27;;;12.32;;
21107;SDS011;10712;52.944;9.098;2023-02-15T04:44:10;14.65;;;11.80;;
21107;SDS011;10712;52.944;9.098;2023-02-15T04:46:36;14.15;;;11.85;;
21107;SDS011;10712;52.944;9.098;2023-02-15T04:49:02;14.73;;;12.00;;
21107;SDS011;10712;52.944;9.098;2023-02-15T04:51:28;13.23;;;10.85;;
21107;SDS011;10712;52.944;9.098;2023-02-15T04:53:54;14.57;;;10.75;;
21107;SDS011;10712;52.944;9.098;2023-02-15T04:56:21;14.15;;;11.40;;
21107;SDS011;10712;52.944;9.098;2023-02-15T04:58:47;15.23;;;11.98;;
21107;SDS011;10712;52.944;9.098;2023-02-15T05:01:14;15.15;;;12.05;;
21107;SDS011;10712;52.944;9.098;2023-02-15T05:03:40;15.00;;;12.07;;
21107;SDS011;10712;52.944;9.098;2023-02-15T05:06:05;15.82;;;12.60;;
21107;SDS011;10712;52.944;9.098;2023-02-15T05:08:31;15.93;;;11.93;;
21107;SDS011;10712;52.944;9.098;2023-02-15T05:10:57;13.05;;;11.05;;
21107;SDS011;10712;52.944;9.098;2023-02-15T05:13:23;15.35;;;11.48;;
21107;SDS011;10712;52.944;9.098;2023-02-15T05:15:52;15.02;;;11.65;;
21107;SDS011;10712;52.944;9.098;2023-02-15T05:18:20;14.52;;;11.93;;
21107;SDS011;10712;52.944;9.098;2023-02-15T05:20:47;15.20;;;11.90;;
21107;SDS011;10712;52.944;9.098;2023-02-15T05:23:13;13.80;;;11.52;;
21107;SDS011;10712;52.944;9.098;2023-02-15T05:25:39;16.90;;;11.88;;
21107;SDS011;10712;52.944;9.098;2023-02-15T05:28:23;13.25;;;11.60;;
21107;SDS011;10712;52.944;9.098;2023-02-15T05:31:09;17.98;;;12.38;;
21107;SDS011;10712;52.944;9.098;2023-02-15T05:33:41;14.00;;;12.25;;
21107;SDS011;10712;52.944;9.098;2023-02-15T05:36:09;15.38;;;11.32;;
21107;SDS011;10712;52.944;9.098;2023-02-15T05:38:35;13.43;;;11.20;;
21107;SDS011;10712;52.944;9.098;2023-02-15T05:41:03;14.90;;;11.63;;
21107;SDS011;10712;52.944;9.098;2023-02-15T05:43:32;14.63;;;11.95;;
21107;SDS011;10712;52.944;9.098;2023-02-15T05:45:58;15.68;;;11.52;;
21107;SDS011;10712;52.944;9.098;2023-02-15T05:48:25;15.73;;;12.57;;
21107;SDS011;10712;52.944;9.098;2023-02-15T05:53:38;13.43;;;11.38;;
21107;SDS011;10712;52.944;9.098;2023-02-15T05:56:06;16.60;;;12.27;;
21107;SDS011;10712;52.944;9.098;2023-02-15T05:58:35;16.13;;;11.98;;
21107;SDS011;10712;52.944;9.098;2023-02-15T06:01:11;14.82;;;11.73;;
21107;SDS011;10712;52.944;9.098;2023-02-15T06:03:40;14.40;;;11.88;;
21107;SDS011;10712;52.944;9.098;2023-02-15T06:06:06;12.15;;;10.43;;
21107;SDS011;10712;52.944;9.098;2023-02-15T06:08:33;17.50;;;12.27;;
21107;SDS011;10712;52.944;9.098;2023-02-15T06:11:00;12.02;;;10.32;;
21107;SDS011;10712;52.944;9.098;2023-02-15T06:13:26;12.73;;;10.82;;
21107;SDS011;10712;52.944;9.098;2023-02-15T06:15:52;14.90;;;12.02;;
21107;SDS011;10712;52.944;9.098;2023-02-15T06:18:18;14.25;;;10.73;;
21107;SDS011;10712;52.944;9.098;2023-02-15T06:20:45;14.73;;;12.02;;
21107;SDS011;10712;52.944;9.098;2023-02-15T06:23:11;14.45;;;12.05;;
21107;SDS011;10712;52.944;9.098;2023-02-15T06:25:37;15.35;;;11.88;;
21107;SDS011;10712;52.944;9.098;2023-02-15T06:28:03;16.35;;;12.23;;
21107;SDS011;10712;52.944;9.098;2023-02-15T06:30:29;15.13;;;12.00;;
21107;SDS011;10712;52.944;9.098;2023-02-15T06:32:56;13.18;;;10.70;;
21107;SDS011;10712;52.944;9.098;2023-02-15T06:35:22;12.45;;;10.05;;
21107;SDS011;10712;52.944;9.098;2023-02-15T06:37:48;16.90;;;11.27;;
21107;SDS011;10712;52.944;9.098;2023-02-15T06:40:14;13.02;;;10.52;;
21107;SDS011;10712;52.944;9.098;2023-02-15T06:42:41;11.77;;;10.35;;
21107;SDS011;10712;52.944;9.098;2023-02-15T06:45:07;11.70;;;9.57;;
21107;SDS011;10712;52.944;9.098;2023-02-15T06:47:34;13.20;;;9.23;;
21107;SDS011;10712;52.944;9.098;2023-02-15T06:50:00;11.13;;;9.93;;
21107;SDS011;10712;52.944;9.098;2023-02-15T06:52:26;10.40;;;8.68;;
21107;SDS011;10712;52.944;9.098;2023-02-15T06:54:51;11.65;;;9.52;;
21107;SDS011;10712;52.944;9.098;2023-02-15T06:57:17;11.15;;;9.13;;
21107;SDS011;10712;52.944;9.098;2023-02-15T06:59:43;10.73;;;9.27;;
21107;SDS011;10712;52.944;9.098;2023-02-15T07:02:10;12.13;;;9.98;;
21107;SDS011;10712;52.944;9.098;2023-02-15T07:04:37;12.93;;;10.07;;
21107;SDS011;10712;52.944;9.098;2023-02-15T07:07:02;48.00;;;32.15;;
21107;SDS011;10712;52.944;9.098;2023-02-15T07:09:29;29.83;;;21.85;;
21107;SDS011;10712;52.944;9.098;2023-02-15T07:11:54;17.00;;;13.52;;
21107;SDS011;10712;52.944;9.098;2023-02-15T07:14:39;12.82;;;10.57;;
21107;SDS011;10712;52.944;9.098;2023-02-15T07:17:05;11.38;;;9.88;;
21107;SDS011;10712;52.944;9.098;2023-02-15T07:19:31;12.13;;;9.70;;
21107;SDS011;10712;52.944;9.098;2023-02-15T07:21:57;12.73;;;9.85;;
21107;SDS011;10712;52.944;9.098;2023-02-15T07:24:24;12.85;;;10.93;;
21107;SDS011;10712;52.944;9.098;2023-02-15T07:26:50;11.20;;;9.30;;
21107;SDS011;10712;52.944;9.098;2023-02-15T07:29:16;9.82;;;8.65;;
21107;SDS011;10712;52.944;9.098;2023-02-15T07:31:43;13.68;;;10.57;;
21107;SDS011;10712;52.944;9.098;2023-02-15T07:34:10;12.75;;;10.23;;
21107;SDS011;10712;52.944;9.098;2023-02-15T07:36:36;11.93;;;9.65;;
21107;SDS011;10712;52.944;9.098;2023-02-15T07:39:02;13.73;;;10.43;;
21107;SDS011;10712;52.944;9.098;2023-02-15T07:41:28;14.13;;;10.43;;
21107;SDS011;10712;52.944;9.098;2023-02-15T07:43:54;13.00;;;10.30;;
21107;SDS011;10712;52.944;9.098;2023-02-15T07:46:20;12.10;;;10.05;;
21107;SDS011;10712;52.944;9.098;2023-02-15T07:48:46;17.50;;;12.95;;
21107;SDS011;10712;52.944;9.098;2023-02-15T07:51:12;13.57;;;11.52;;
21107;SDS011;10712;52.944;9.098;2023-02-15T07:53:39;13.38;;;11.30;;
21107;SDS011;10712;52.944;9.098;2023-02-15T07:56:07;13.18;;;10.38;;
21107;SDS011;10712;52.944;9.098;2023-02-15T07:58:37;12.90;;;10.25;;
21107;SDS011;10712;52.944;9.098;2023-02-15T08:01:16;13.43;;;10.60;;
21107;SDS011;10712;52.944;9.098;2023-02-15T08:03:52;12.55;;;10.77;;
21107;SDS011;10712;52.944;9.098;2023-02-15T08:06:19;15.55;;;12.48;;
21107;SDS011;10712;52.944;9.098;2023-02-15T08:08:47;15.70;;;12.80;;
21107;SDS011;10712;52.944;9.098;2023-02-15T08:14:13;15.52;;;12.00;;
21107;SDS011;10712;52.944;9.098;2023-02-15T08:21:52;15.35;;;12.25;;
21107;SDS011;10712;52.944;9.098;2023-02-15T08:24:32;17.23;;;12.67;;
21107;SDS011;10712;52.944;9.098;2023-02-15T08:27:03;16.10;;;12.40;;
21107;SDS011;10712;52.944;9.098;2023-02-15T08:29:31;14.65;;;11.60;;
21107;SDS011;10712;52.944;9.098;2023-02-15T08:32:01;14.68;;;11.95;;
21107;SDS011;10712;52.944;9.098;2023-02-15T08:34:31;13.77;;;11.68;;
21107;SDS011;10712;52.944;9.098;2023-02-15T08:37:00;15.00;;;11.98;;
21107;SDS011;10712;52.944;9.098;2023-02-15T08:39:27;16.45;;;13.40;;
21107;SDS011;10712;52.944;9.098;2023-02-15T08:41:53;18.88;;;13.45;;
21107;SDS011;10712;52.944;9.098;2023-02-15T08:44:19;16.60;;;12.02;;
21107;SDS011;10712;52.944;9.098;2023-02-15T08:46:46;17.45;;;14.65;;
21107;SDS011;10712;52.944;9.098;2023-02-15T08:49:17;16.60;;;13.65;;
21107;SDS011;10712;52.944;9.098;2023-02-15T08:51:46;24.10;;;16.48;;
21107;SDS011;10712;52.944;9.098;2023-02-15T08:54:14;21.00;;;15.80;;
21107;SDS011;10712;52.944;9.098;2023-02-15T08:56:43;18.85;;;14.68;;
21107;SDS011;10712;52.944;9.098;2023-02-15T08:59:14;21.48;;;15.70;;
21107;SDS011;10712;52.944;9.098;2023-02-15T09:01:43;19.60;;;14.65;;
21107;SDS011;10712;52.944;9.098;2023-02-15T09:04:12;17.77;;;13.85;;
21107;SDS011;10712;52.944;9.098;2023-02-15T09:06:38;18.50;;;13.13;;
21107;SDS011;10712;52.944;9.098;2023-02-15T09:09:05;18.40;;;14.07;;
21107;SDS011;10712;52.944;9.098;2023-02-15T09:11:36;17.23;;;13.55;;
21107;SDS011;10712;52.944;9.098;2023-02-15T09:14:09;17.90;;;13.85;;
21107;SDS011;10712;52.944;9.098;2023-02-15T09:16:45;39.05;;;30.77;;
21107;SDS011;10712;52.944;9.098;2023-02-15T09:19:18;35.83;;;24.75;;
21107;SDS011;10712;52.944;9.098;2023-02-15T09:21:47;24.70;;;19.08;;
21107;SDS011;10712;52.944;9.098;2023-02-15T09:24:15;23.40;;;17.75;;
21107;SDS011;10712;52.944;9.098;2023-02-15T09:26:43;22.63;;;17.25;;
21107;SDS011;10712;52.944;9.098;2023-02-15T09:29:11;24.17;;;17.80;;
21107;SDS011;10712;52.944;9.098;2023-02-15T09:31:42;21.35;;;15.55;;
21107;SDS011;10712;52.944;9.098;2023-02-15T09:34:11;22.23;;;15.27;;
21107;SDS011;10712;52.944;9.098;2023-02-15T09:36:41;26.00;;;19.87;;
21107;SDS011;10712;52.944;9.098;2023-02-15T09:39:08;27.23;;;20.35;;
21107;SDS011;10712;52.944;9.098;2023-02-15T09:41:44;29.38;;;21.40;;
21107;SDS011;10712;52.944;9.098;2023-02-15T09:47:36;26.45;;;19.58;;
21107;SDS011;10712;52.944;9.098;2023-02-15T09:51:00;32.75;;;23.40;;
21107;SDS011;10712;52.944;9.098;2023-02-15T09:56:45;28.90;;;21.80;;
21107;SDS011;10712;52.944;9.098;2023-02-15T10:05:38;25.48;;;19.60;;
21107;SDS011;10712;52.944;9.098;2023-02-15T10:11:15;28.60;;;20.05;;
21107;SDS011;10712;52.944;9.098;2023-02-15T10:14:21;30.17;;;20.88;;
21107;SDS011;10712;52.944;9.098;2023-02-15T10:17:04;30.20;;;22.92;;
21107;SDS011;10712;52.944;9.098;2023-02-15T10:23:09;39.55;;;26.85;;
21107;SDS011;10712;52.944;9.098;2023-02-15T10:25:51;30.63;;;22.95;;
21107;SDS011;10712;52.944;9.098;2023-02-15T10:31:26;30.13;;;22.08;;
21107;SDS011;10712;52.944;9.098;2023-02-15T10:34:16;28.83;;;19.90;;
21107;SDS011;10712;52.944;9.098;2023-02-15T10:40:13;26.98;;;20.40;;
21107;SDS011;10712;52.944;9.098;2023-02-15T10:42:41;26.45;;;19.77;;
21107;SDS011;10712;52.944;9.098;2023-02-15T10:45:48;28.27;;;20.55;;
21107;SDS011;10712;52.944;9.098;2023-02-15T10:49:03;28.20;;;21.27;;
21107;SDS011;10712;52.944;9.098;2023-02-15T10:54:31;25.50;;;19.63;;
21107;SDS011;10712;52.944;9.098;2023-02-15T11:09:18;25.95;;;20.17;;
21107;SDS011;10712;52.944;9.098;2023-02-15T11:14:23;27.02;;;20.17;;
21107;SDS011;10712;52.944;9.098;2023-02-15T11:17:04;29.35;;;22.42;;
21107;SDS011;10712;52.944;9.098;2023-02-15T11:19:38;29.08;;;20.70;;
21107;SDS011;10712;52.944;9.098;2023-02-15T11:22:12;25.55;;;19.17;;
21107;SDS011;10712;52.944;9.098;2023-02-15T11:24:40;26.35;;;21.13;;
21107;SDS011;10712;52.944;9.098;2023-02-15T11:29:58;32.33;;;22.92;;
21107;SDS011;10712;52.944;9.098;2023-02-15T11:32:37;36.20;;;24.48;;
21107;SDS011;10712;52.944;9.098;2023-02-15T11:37:47;34.90;;;24.00;;
21107;SDS011;10712;52.944;9.098;2023-02-15T11:40:30;34.28;;;24.10;;
21107;SDS011;10712;52.944;9.098;2023-02-15T11:43:12;27.52;;;21.80;;
21107;SDS011;10712;52.944;9.098;2023-02-15T11:45:45;28.27;;;21.98;;
21107;SDS011;10712;52.944;9.098;2023-02-15T11:48:12;26.95;;;20.50;;
21107;SDS011;10712;52.944;9.098;2023-02-15T11:50:41;27.23;;;21.77;;
21107;SDS011;10712;52.944;9.098;2023-02-15T11:53:10;29.25;;;20.75;;
21107;SDS011;10712;52.944;9.098;2023-02-15T11:55:52;25.65;;;19.95;;
21107;SDS011;10712;52.944;9.098;2023-02-15T12:01:02;27.73;;;22.13;;
21107;SDS011;10712;52.944;9.098;2023-02-15T12:03:58;30.17;;;22.83;;
21107;SDS011;10712;52.944;9.098;2023-02-15T12:06:40;24.67;;;19.63;;
21107;SDS011;10712;52.944;9.098;2023-02-15T12:12:42;26.25;;;19.83;;
21107;SDS011;10712;52.944;9.098;2023-02-15T12:15:10;42.95;;;31.15;;
21107;SDS011;10712;52.944;9.098;2023-02-15T12:17:41;27.67;;;20.75;;
21107;SDS011;10712;52.944;9.098;2023-02-15T12:22:46;27.85;;;22.27;;
21107;SDS011;10712;52.944;9.098;2023-02-15T12:25:35;28.45;;;20.30;;
21107;SDS011;10712;52.944;9.098;2023-02-15T12:28:15;31.10;;;22.15;;
21107;SDS011;10712;52.944;9.098;2023-02-15T12:30:49;27.60;;;20.80;;
21107;SDS011;10712;52.944;9.098;2023-02-15T12:35:57;30.25;;;22.05;;
21107;SDS011;10712;52.944;9.098;2023-02-15T12:38:40;24.70;;;19.25;;
21107;SDS011;10712;52.944;9.098;2023-02-15T12:46:47;27.98;;;20.67;;
21107;SDS011;10712;52.944;9.098;2023-02-15T12:49:25;27.77;;;21.30;;
21107;SDS011;10712;52.944;9.098;2023-02-15T12:51:55;30.23;;;22.30;;
21107;SDS011;10712;52.944;9.098;2023-02-15T12:57:04;24.17;;;19.27;;
21107;SDS011;10712;52.944;9.098;2023-02-15T12:59:59;46.47;;;21.17;;
21107;SDS011;10712;52.944;9.098;2023-02-15T13:02:46;29.15;;;20.35;;
21107;SDS011;10712;52.944;9.098;2023-02-15T13:08:12;27.88;;;19.40;;
21107;SDS011;10712;52.944;9.098;2023-02-15T13:11:11;35.10;;;19.42;;
21107;SDS011;10712;52.944;9.098;2023-02-15T13:13:51;31.67;;;18.98;;
21107;SDS011;10712;52.944;9.098;2023-02-15T13:16:33;26.58;;;18.80;;
21107;SDS011;10712;52.944;9.098;2023-02-15T13:19:05;24.98;;;17.45;;
21107;SDS011;10712;52.944;9.098;2023-02-15T13:21:40;27.50;;;18.80;;
21107;SDS011;10712;52.944;9.098;2023-02-15T13:26:47;24.67;;;16.92;;
21107;SDS011;10712;52.944;9.098;2023-02-15T13:29:35;32.47;;;17.80;;
21107;SDS011;10712;52.944;9.098;2023-02-15T13:32:07;27.45;;;17.45;;
21107;SDS011;10712;52.944;9.098;2023-02-15T13:34:58;26.13;;;18.05;;
21107;SDS011;10712;52.944;9.098;2023-02-15T13:40:55;32.40;;;23.77;;
21107;SDS011;10712;52.944;9.098;2023-02-15T13:43:42;29.23;;;21.88;;
21107;SDS011;10712;52.944;9.098;2023-02-15T13:46:40;29.83;;;19.40;;
21107;SDS011;10712;52.944;9.098;2023-02-15T13:58:51;27.02;;;17.55;;
21107;SDS011;10712;52.944;9.098;2023-02-15T14:01:56;29.65;;;20.17;;
21107;SDS011;10712;52.944;9.098;2023-02-15T14:11:26;31.60;;;19.85;;
21107;SDS011;10712;52.944;9.098;2023-02-15T14:20:17;25.58;;;19.35;;
21107;SDS011;10712;52.944;9.098;2023-02-15T14:23:14;30.25;;;18.95;;
21107;SDS011;10712;52.944;9.098;2023-02-15T14:26:03;30.35;;;20.77;;
21107;SDS011;10712;52.944;9.098;2023-02-15T14:28:54;30.55;;;20.90;;
21107;SDS011;10712;52.944;9.098;2023-02-15T14:31:46;29.38;;;20.45;;
21107;SDS011;10712;52.944;9.098;2023-02-15T14:34:21;28.25;;;20.08;;
21107;SDS011;10712;52.944;9.098;2023-02-15T14:49:09;34.00;;;20.17;;
21107;SDS011;10712;52.944;9.098;2023-02-15T14:54:11;29.98;;;20.88;;
21107;SDS011;10712;52.944;9.098;2023-02-15T14:59:27;29.10;;;20.30;;
21107;SDS011;10712;52.944;9.098;2023-02-15T15:02:47;35.78;;;21.35;;
21107;SDS011;10712;52.944;9.098;2023-02-15T15:05:29;30.45;;;21.80;;
21107;SDS011;10712;52.944;9.098;2023-02-15T15:08:19;25.98;;;19.20;;
21107;SDS011;10712;52.944;9.098;2023-02-15T15:14:00;25.88;;;19.10;;
21107;SDS011;10712;52.944;9.098;2023-02-15T15:19:01;26.48;;;18.45;;
21107;SDS011;10712;52.944;9.098;2023-02-15T15:51:49;20.42;;;14.52;;
21107;SDS011;10712;52.944;9.098;2023-02-15T15:53:58;24.38;;;15.35;;
21107;SDS011;10712;52.944;9.098;2023-02-15T15:56:29;22.10;;;16.13;;
21107;SDS011;10712;52.944;9.098;2023-02-15T15:59:06;21.48;;;16.73;;
21107;SDS011;10712;52.944;9.098;2023-02-15T16:01:43;24.98;;;17.23;;
21107;SDS011;10712;52.944;9.098;2023-02-15T16:04:14;23.60;;;17.25;;
21107;SDS011;10712;52.944;9.098;2023-02-15T16:06:57;21.73;;;16.23;;
21107;SDS011;10712;52.944;9.098;2023-02-15T16:09:38;23.17;;;15.23;;
21107;SDS011;10712;52.944;9.098;2023-02-15T16:12:04;19.90;;;15.18;;
21107;SDS011;10712;52.944;9.098;2023-02-15T16:14:42;20.15;;;14.70;;
21107;SDS011;10712;52.944;9.098;2023-02-15T16:17:17;20.45;;;13.98;;
21107;SDS011;10712;52.944;9.098;2023-02-15T16:19:50;18.45;;;13.07;;
21107;SDS011;10712;52.944;9.098;2023-02-15T16:22:25;20.17;;;15.02;;
21107;SDS011;10712;52.944;9.098;2023-02-15T16:27:43;19.45;;;13.65;;
21107;SDS011;10712;52.944;9.098;2023-02-15T16:30:21;17.88;;;13.45;;
21107;SDS011;10712;52.944;9.098;2023-02-15T16:35:54;18.58;;;14.02;;
21107;SDS011;10712;52.944;9.098;2023-02-15T16:41:08;23.77;;;17.90;;
21107;SDS011;10712;52.944;9.098;2023-02-15T16:43:43;21.30;;;16.77;;
21107;SDS011;10712;52.944;9.098;2023-02-15T16:46:16;23.30;;;16.02;;
21107;SDS011;10712;52.944;9.098;2023-02-15T16:48:57;20.38;;;15.00;;
21107;SDS011;10712;52.944;9.098;2023-02-15T16:51:28;28.25;;;18.08;;
21107;SDS011;10712;52.944;9.098;2023-02-15T16:54:00;22.35;;;16.17;;
21107;SDS011;10712;52.944;9.098;2023-02-15T16:56:33;21.20;;;14.88;;
21107;SDS011;10712;52.944;9.098;2023-02-15T16:59:01;24.17;;;15.75;;
21107;SDS011;10712;52.944;9.098;2023-02-15T17:01:29;20.02;;;15.45;;
21107;SDS011;10712;52.944;9.098;2023-02-15T17:04:39;19.95;;;14.35;;
21107;SDS011;10712;52.944;9.098;2023-02-15T17:06:57;20.83;;;14.00;;
21107;SDS011;10712;52.944;9.098;2023-02-15T17:09:23;23.13;;;16.27;;
21107;SDS011;10712;52.944;9.098;2023-02-15T17:11:50;21.60;;;15.68;;
21107;SDS011;10712;52.944;9.098;2023-02-15T17:14:19;28.77;;;18.75;;
21107;SDS011;10712;52.944;9.098;2023-02-15T17:16:53;34.17;;;22.55;;
21107;SDS011;10712;52.944;9.098;2023-02-15T17:19:30;35.50;;;21.65;;
21107;SDS011;10712;52.944;9.098;2023-02-15T17:22:17;33.00;;;21.70;;
21107;SDS011;10712;52.944;9.098;2023-02-15T17:24:47;30.08;;;20.60;;
21107;SDS011;10712;52.944;9.098;2023-02-15T17:27:24;27.40;;;18.90;;
21107;SDS011;10712;52.944;9.098;2023-02-15T17:29:56;28.35;;;18.30;;
21107;SDS011;10712;52.944;9.098;2023-02-15T17:32:29;25.48;;;18.38;;
21107;SDS011;10712;52.944;9.098;2023-02-15T17:35:08;26.63;;;18.90;;
21107;SDS011;10712;52.944;9.098;2023-02-15T17:37:50;24.70;;;17.45;;
21107;SDS011;10712;52.944;9.098;2023-02-15T17:40:40;23.23;;;17.08;;
21107;SDS011;10712;52.944;9.098;2023-02-15T17:43:05;25.13;;;18.33;;
21107;SDS011;10712;52.944;9.098;2023-02-15T17:45:32;27.70;;;17.92;;
21107;SDS011;10712;52.944;9.098;2023-02-15T17:48:02;38.10;;;22.80;;
21107;SDS011;10712;52.944;9.098;2023-02-15T17:50:30;37.05;;;22.63;;
21107;SDS011;10712;52.944;9.098;2023-02-15T17:52:57;27.58;;;19.92;;
21107;SDS011;10712;52.944;9.098;2023-02-15T17:55:26;32.63;;;19.70;;
21107;SDS011;10712;52.944;9.098;2023-02-15T17:58:06;32.45;;;21.33;;
21107;SDS011;10712;52.944;9.098;2023-02-15T18:00:42;33.75;;;23.42;;
21107;SDS011;10712;52.944;9.098;2023-02-15T18:06:34;51.90;;;29.08;;
21107;SDS011;10712;52.944;9.098;2023-02-15T18:09:22;49.85;;;28.60;;
21107;SDS011;10712;52.944;9.098;2023-02-15T18:12:25;63.28;;;33.13;;
21107;SDS011;10712;52.944;9.098;2023-02-15T18:14:54;50.53;;;28.13;;
21107;SDS011;10712;52.944;9.098;2023-02-15T18:17:32;40.70;;;24.42;;
21107;SDS011;10712;52.944;9.098;2023-02-15T18:20:15;44.08;;;26.38;;
21107;SDS011;10712;52.944;9.098;2023-02-15T18:22:48;41.63;;;24.23;;
21107;SDS011;10712;52.944;9.098;2023-02-15T18:25:17;33.20;;;23.13;;
21107;SDS011;10712;52.944;9.098;2023-02-15T18:27:46;33.22;;;23.10;;
21107;SDS011;10712;52.944;9.098;2023-02-15T18:30:13;33.63;;;22.48;;
21107;SDS011;10712;52.944;9.098;2023-02-15T18:32:44;32.63;;;22.15;;
21107;SDS011;10712;52.944;9.098;2023-02-15T18:35:16;35.28;;;21.40;;
21107;SDS011;10712;52.944;9.098;2023-02-15T18:37:47;35.53;;;21.67;;